• Join FlightAware (Why Join?)
  • Login
  • US Flag 
04:02AM EDT


 

Airport Tracker/Info


-or-


 

Live Flight TrackerFlight Track Log ✈ SWA1887 ✈ 28-Apr-2013 ✈ KIND - KDEN

Flight Track Log - Related Links

Times and Time Zones

All times are in EDT time to prevent confusion due to time zone crossing. See the SWA1887 flight status page for this flight to view local times or setup timezone preferences in your user account.

Time Position Orientation Groundspeed Altitude Reporting Facility
EDT Latitude Longitude Course Direction KTS MPH feet Rate Location/Type
08:03AM 39.7333 -86.2833 21° North 154 177 1,600  Level Indianapolis TRACON
08:03AM 39.7667 -86.2667 21° North 224 258 3,200 1,860 Climbing Indianapolis TRACON
08:04AM 39.7833 -86.3333 288° West 251 289 5,200 2,700 Climbing Indianapolis TRACON
08:06AM 39.7392 -86.4483 243° Southwest 261 300 9,700 2,700 Climbing Indianapolis Center
08:07AM 39.7228 -86.5542 259° West 308 354 11,800 2,700 Climbing Indianapolis Center
08:08AM 39.7167 -86.6772 266° West 336 387 15,300 3,240 Climbing Indianapolis Center
08:09AM 39.7100 -86.8056 266° West 350 403 18,500 3,000 Climbing Indianapolis Center
08:10AM 39.7028 -86.9422 266° West 371 427 21,500 2,760 Climbing Indianapolis Center
08:11AM 39.6950 -87.0836 266° West 386 444 24,200 2,520 Climbing Indianapolis Center
08:12AM 39.6864 -87.2303 266° West 399 459 26,700 2,100 Climbing Indianapolis Center
08:13AM 39.6792 -87.3811 266° West 411 473 28,500 1,740 Climbing Indianapolis Center
08:14AM 39.6697 -87.5369 266° West 426 490 30,300 1,680 Climbing Indianapolis Center
08:15AM 39.6600 -87.6958 266° West 436 502 32,000 780 Climbing Indianapolis Center
08:16AM 39.6511 -87.8528 266° West 434 499 32,000  Level Indianapolis Center
08:17AM 39.6425 -88.0086 266° West 433 498 32,000 960 Level Indianapolis Center
08:18AM 39.6300 -88.1897 265° West 431 496 34,000 1,320 Climbing Indianapolis Center
08:19AM 39.6256 -88.2439 264° West 431 496 34,000 720 Level Kansas City Center
08:20AM 39.6167 -88.3992 266° West 431 496 35,100 1,140 Climbing Kansas City Center
08:21AM 39.6061 -88.5683 265° West 431 496 36,400 1,560 Climbing Kansas City Center
08:22AM 39.5956 -88.7261 265° West 434 499 38,300 1,440 Climbing Kansas City Center
08:23AM 39.6019 -88.8778 273° West 436 502 39,400 780 Climbing Kansas City Center
08:24AM 39.6444 -89.0206 291° West 429 494 40,000 240 Climbing Kansas City Center
08:25AM 39.6869 -89.1633 291° West 424 488 40,000  Level Kansas City Center
08:26AM 39.7303 -89.3069 291° West 427 491 40,000  Level Kansas City Center
08:27AM 39.7731 -89.4469 292° West 421 484 40,000  Level Kansas City Center
08:28AM 39.8128 -89.5867 290° West 415 478 40,000  Level Kansas City Center
08:29AM 39.8453 -89.7322 286° West 420 483 40,000  Level Kansas City Center
08:30AM 39.8622 -89.8828 278° West 423 487 40,000  Level Kansas City Center
08:31AM 39.8800 -90.0336 279° West 421 484 40,000  Level Kansas City Center
08:32AM 39.8961 -90.1842 278° West 419 482 40,000  Level Kansas City Center
08:33AM 39.9119 -90.3350 278° West 420 483 40,000  Level Kansas City Center
08:34AM 39.9289 -90.4875 278° West 422 486 40,000  Level Kansas City Center
08:35AM 39.9447 -90.6394 278° West 422 486 40,000  Level Kansas City Center
08:36AM 39.9614 -90.7917 278° West 423 487 40,000  Level Kansas City Center
08:37AM 39.9775 -90.9436 278° West 422 486 40,000  Level Kansas City Center
08:38AM 39.9944 -91.1064 278° West 423 487 40,000  Level Kansas City Center
08:39AM 40.0086 -91.2569 277° West 422 486 40,000  Level Kansas City Center
08:40AM 40.0236 -91.4075 277° West 421 484 40,000  Level Kansas City Center
08:41AM 40.0381 -91.5572 277° West 420 483 40,000  Level Kansas City Center
08:42AM 40.0528 -91.7064 277° West 418 481 40,000  Level Kansas City Center
08:43AM 40.0681 -91.8544 278° West 415 478 40,000  Level Kansas City Center
08:44AM 40.0844 -92.0317 277° West 413 475 40,000  Level Kansas City Center
08:45AM 40.0986 -92.1789 277° West 411 473 40,000  Level Kansas City Center
08:46AM 40.1117 -92.3269 277° West 411 473 40,000  Level Kansas City Center
08:47AM 40.1256 -92.4842 277° West 411 473 40,000  Level Kansas City Center
08:48AM 40.1478 -92.6242 282° West 413 475 40,000  Level Kansas City Center
08:49AM 40.1919 -92.7575 293° West 417 480 40,000  Level Kansas City Center
08:50AM 40.2439 -92.9122 294° West 417 480 40,000  Level Kansas City Center
08:51AM 40.2886 -93.0444 294° West 418 481 40,000  Level Kansas City Center
08:52AM 40.3358 -93.1847 294° West 421 484 40,000  Level Kansas City Center
08:53AM 40.3811 -93.3197 294° West 412 474 40,000  Level Kansas City Center
08:54AM 40.4264 -93.4550 294° West 408 470 40,000  Level Kansas City Center
08:55AM 40.4719 -93.5897 294° West 407 468 40,000  Level Kansas City Center
08:56AM 40.5169 -93.7250 294° West 407 468 40,000  Level Kansas City Center
08:57AM 40.5606 -93.8619 293° West 407 468 40,000  Level Minneapolis Center
08:58AM 40.6122 -94.0258 293° West 407 468 40,000  Level Minneapolis Center
08:59AM 40.6561 -94.1603 293° West 405 466 40,000  Level Minneapolis Center
09:00AM 40.7014 -94.2944 294° West 404 465 40,000  Level Minneapolis Center
09:01AM 40.7464 -94.4283 294° West 403 464 40,000  Level Minneapolis Center
09:02AM 40.7908 -94.5667 293° West 399 459 40,000  Level Minneapolis Center
09:03AM 40.8367 -94.7000 294° West 399 459 40,000  Level Minneapolis Center
09:04AM 40.8792 -94.8347 293° West 399 459 40,000  Level Minneapolis Center
09:05AM 40.9228 -94.9711 293° West 402 463 40,000  Level Minneapolis Center
09:06AM 40.9589 -95.0792 294° West 403 464 40,000  Level Minneapolis Center
09:07AM 41.0111 -95.2425 293° West 402 463 40,000  Level Minneapolis Center
09:08AM 41.0544 -95.3792 293° West 402 463 40,000  Level Minneapolis Center
09:09AM 41.0969 -95.5172 292° West 403 464 40,000  Level Minneapolis Center
09:10AM 41.1397 -95.6508 293° West 405 466 40,000  Level Minneapolis Center
09:11AM 41.1764 -95.8236 286° West 409 471 40,000  Level Minneapolis Center
09:12AM 41.1881 -95.9742 276° West 413 475 40,000  Level Minneapolis Center
09:13AM 41.2022 -96.1244 277° West 410 472 40,000  Level Minneapolis Center
09:14AM 41.2147 -96.2772 276° West 414 476 40,000  Level Minneapolis Center
09:15AM 41.2269 -96.4136 277° West 416 479 40,000  Level Minneapolis Center
09:16AM 41.2400 -96.5669 277° West 416 479 40,000  Level Minneapolis Center
09:17AM 41.2525 -96.7200 276° West 417 480 40,000  Level Minneapolis Center
09:18AM 41.2650 -96.8767 276° West 423 487 40,000  Level Minneapolis Center
09:19AM 41.2778 -97.0286 276° West 416 479 40,000  Level Minneapolis Center
09:21AM 41.2894 -97.1806 276° West 413 475 40,000  Level Minneapolis Center
09:22AM 41.3053 -97.3914 276° West 410 472 40,000  Level Minneapolis Center
09:23AM 41.3158 -97.5258 276° West 408 470 40,000  Level Minneapolis Center
09:24AM 41.3267 -97.6772 275° West 410 472 40,000  Level Minneapolis Center
09:25AM 41.3392 -97.8433 276° West 410 472 40,000  Level Minneapolis Center
09:26AM 41.3508 -97.9961 276° West 413 475 40,000  Level Minneapolis Center
09:27AM 41.3606 -98.1325 275° West 414 476 40,000  Level Minneapolis Center
09:28AM 41.3722 -98.3150 275° West 414 476 40,000  Level Minneapolis Center
09:29AM 41.3508 -98.4508 258° West 422 486 40,000  Level Minneapolis Center
09:30AM 41.3164 -98.5997 253° West 423 487 40,000  Level Minneapolis Center
09:31AM 41.2728 -98.7772 252° West 422 486 40,000  Level Minneapolis Center
09:32AM 41.2428 -98.8972 252° West 419 482 40,000  Level Denver Center
09:33AM 41.2097 -99.0367 253° West 415 478 40,000  Level Denver Center
09:34AM 41.1831 -99.1908 257° West 409 471 40,000  Level Denver Center
09:35AM 41.1550 -99.3361 256° West 408 470 40,000  Level Denver Center
09:36AM 41.1281 -99.4794 256° West 407 468 40,000  Level Denver Center
09:37AM 41.0969 -99.6417 256° West 407 468 40,000  Level Denver Center
09:38AM 41.0725 -99.7722 256° West 406 467 40,000  Level Denver Center
09:39AM 41.0433 -99.9183 255° West 404 465 40,000  Level Denver Center
09:40AM 41.0122 -100.0794 256° West 405 466 40,000  Level Denver Center
09:41AM 40.9847 -100.2181 255° West 406 467 40,000  Level Denver Center
09:42AM 40.9575 -100.3567 255° West 408 470 40,000  Level Denver Center
09:43AM 40.9264 -100.5181 256° West 407 468 40,000  Level Denver Center
09:44AM 40.8986 -100.6575 255° West 411 473 40,000  Level Denver Center
09:45AM 40.8650 -100.8147 254° West 414 476 40,000  Level Denver Center
09:46AM 40.8361 -100.9517 254° West 413 475 40,000  Level Denver Center
09:47AM 40.8083 -101.0889 255° West 408 470 40,000  Level Denver Center
09:48AM 40.7747 -101.2492 255° West 406 467 40,000  Level Denver Center
09:49AM 40.7461 -101.3889 255° West 411 473 40,000  Level Denver Center
09:50AM 40.7164 -101.5272 254° West 410 472 40,000  Level Denver Center
09:51AM 40.6819 -101.6889 254° West 412 474 40,000 -180 Level Denver Center
09:52AM 40.6522 -101.8264 254° West 409 471 39,700 -720 Descending Denver Center
09:53AM 40.6231 -101.9656 255° West 414 476 38,600 -1,680 Descending Denver Center
09:54AM 40.5864 -102.1333 254° West 427 491 36,400 -1,800 Descending Denver Center
09:55AM 40.5558 -102.2786 255° West 430 495 35,000 -720 Descending Denver Center
09:56AM 40.5192 -102.4456 254° West 426 490 35,000  Level Denver Center
09:57AM 40.4875 -102.5850 253° West 418 481 35,000  Level Denver Center
09:58AM 40.4572 -102.7289 255° West 416 479 35,000 -1,080 Level Denver Center
09:59AM 40.4242 -102.8753 254° West 417 480 32,900 -2,040 Descending Denver Center
10:00AM 40.3917 -103.0161 253° West 404 465 30,900 -1,980 Descending Denver Center
10:01AM 40.3614 -103.1531 254° West 388 447 28,900 -1,980 Descending Denver Center
10:02AM 40.3319 -103.2839 254° West 372 428 26,900 -1,920 Descending Denver Center
10:03AM 40.3028 -103.4097 253° West 360 414 25,000 -1,680 Descending Denver Center
10:04AM 40.2744 -103.5314 253° West 349 402 23,200 -1,920 Descending Denver Center
10:05AM 40.2383 -103.6889 253° West 337 388 20,700 -2,100 Descending Denver Center
10:06AM 40.2117 -103.8031 253° West 333 383 18,900 -1,440 Descending Denver Center
10:07AM 40.2036 -103.9097 264° West 289 333 17,800 -1,320 Descending Denver Center
10:08AM 40.2150 -104.0139 278° West 291 335 16,300 -1,560 Descending Denver Center
10:10AM 40.2253 -104.1242 277° West 287 330 14,700 -1,620 Descending Denver Center
10:11AM 40.2353 -104.2294 277° West 292 336 13,100 -1,320 Descending Denver Center
10:12AM 40.2450 -104.3333 277° West 290 334 12,000 -840 Descending Denver Center
10:13AM 40.2322 -104.4192 259° West 255 293 11,400 -960 Descending Denver Center
10:14AM 40.1933 -104.5011 238° Southwest 245 282 10,100 -1,200 Descending Denver Center
10:15AM 40.1553 -104.5747 236° Southwest 247 284 9,000 -1,080 Descending Denver Center
10:16AM 40.0958 -104.6144 207° Southwest 241 277 8,000 -1,020 Descending Denver Center
10:17AM 40.0344 -104.6572 208° Southwest 234 269 7,000 -540 Descending Denver Center
10:18AM 39.9828 -104.6878 204° Southwest 205 236 6,900 -480 Descending Denver Center
10:19AM 39.9344 -104.6864 179° South 169 194 6,100 -840 Descending Denver Center
10:20AM 39.8922 -104.6872 181° South 142 163 5,300 -780 Descending Denver Center
10:22AM 39.8617 -104.6732 North  Level Estimated
10:29AM 39.8617 -104.6732 North  Level Estimated
10:30AM 39.8617 -104.6732 North  Level Estimated